createdAt,value
2023-04-27T00:00:11.940Z,2.50
2023-04-27T00:05:13.713Z,2.80
2023-04-27T00:10:12.690Z,2.63
2023-04-27T00:15:12.246Z,2.03
2023-04-27T00:20:13.297Z,4.90
2023-04-27T00:25:12.196Z,2.53
2023-04-27T00:30:12.414Z,2.53
2023-04-27T00:35:12.835Z,6.03
2023-04-27T00:40:14.331Z,1.90
2023-04-27T00:45:13.880Z,2.30
2023-04-27T00:50:13.715Z,1.60
2023-04-27T00:55:12.201Z,2.80
2023-04-27T01:00:13.656Z,2.70
2023-04-27T01:05:13.689Z,5.93
2023-04-27T01:10:12.360Z,2.23
2023-04-27T01:15:11.942Z,6.50
2023-04-27T01:20:12.151Z,3.60
2023-04-27T01:25:13.035Z,1.80
2023-04-27T01:30:11.774Z,3.27
2023-04-27T01:35:11.395Z,2.83
2023-04-27T01:40:12.251Z,3.23
2023-04-27T01:45:12.457Z,4.17
2023-04-27T01:50:11.876Z,2.67
2023-04-27T01:55:12.602Z,2.90
2023-04-27T02:00:12.234Z,3.43
2023-04-27T02:05:19.612Z,2.17
2023-04-27T02:10:22.514Z,3.20
2023-04-27T02:22:09.845Z,3.57
2023-04-27T02:27:09.725Z,6.37
2023-04-27T02:32:08.793Z,8.47
2023-04-27T02:37:07.277Z,2.53
2023-04-27T02:42:05.984Z,11.17
2023-04-27T02:47:06.017Z,2.67
2023-04-27T02:52:04.901Z,4.77
2023-04-27T02:57:03.828Z,3.70
2023-04-27T03:02:02.293Z,2.60
2023-04-27T03:07:02.132Z,2.63
2023-04-27T03:12:02.943Z,2.97
2023-04-27T03:17:03.502Z,4.87
2023-04-27T03:22:03.337Z,3.40
2023-04-27T03:27:02.579Z,2.20
2023-04-27T03:32:01.380Z,2.50
2023-04-27T03:36:59.991Z,2.20
2023-04-27T03:41:59.917Z,2.47
2023-04-27T03:46:58.658Z,1.93
2023-04-27T03:51:57.331Z,3.33
2023-04-27T03:56:55.829Z,2.47
2023-04-27T04:02:00.786Z,9.00
2023-04-27T04:06:59.703Z,6.10
2023-04-27T04:11:57.945Z,9.20
2023-04-27T04:16:58.118Z,4.47
2023-04-27T04:21:58.144Z,3.27
2023-04-27T04:26:57.269Z,4.00
2023-04-27T04:31:58.185Z,4.13
2023-04-27T04:36:57.706Z,4.40
2023-04-27T04:41:56.409Z,3.87
2023-04-27T04:46:59.701Z,3.20
2023-04-27T04:51:58.304Z,3.30
2023-04-27T04:56:56.937Z,5.90
2023-04-27T05:01:57.639Z,5.53
2023-04-27T05:06:57.592Z,2.53
2023-04-27T05:11:56.151Z,2.37
2023-04-27T05:16:54.669Z,4.40
2023-04-27T05:21:53.128Z,3.30
2023-04-27T05:26:52.972Z,3.70
2023-04-27T05:31:51.516Z,6.17
2023-04-27T05:36:50.067Z,3.07
2023-04-27T05:41:48.533Z,4.93
2023-04-27T05:46:48.362Z,3.00
2023-04-27T05:51:46.835Z,3.17
2023-04-27T05:56:44.972Z,4.37
2023-04-27T06:01:43.502Z,3.43
2023-04-27T06:06:43.325Z,3.30
2023-04-27T06:11:42.027Z,4.00
2023-04-27T06:16:40.986Z,2.33
2023-04-27T06:21:39.455Z,3.30
2023-04-27T06:26:39.264Z,3.90
2023-04-27T06:32:27.080Z,5.80
2023-04-27T06:37:25.733Z,3.40
2023-04-27T06:42:25.576Z,3.97
2023-04-27T06:47:25.054Z,4.00
2023-04-27T06:52:23.612Z,3.73
2023-04-27T06:57:22.083Z,5.20
2023-04-27T07:02:23.192Z,2.43
2023-04-27T07:07:23.133Z,4.40
2023-04-27T07:12:21.594Z,2.90
2023-04-27T07:17:21.806Z,13.83
2023-04-27T07:22:20.095Z,3.30
2023-04-27T07:27:18.688Z,4.30
2023-04-27T07:32:17.406Z,2.77
2023-04-27T07:37:17.877Z,3.87
2023-04-27T07:42:16.751Z,1.93
2023-04-27T07:47:15.233Z,3.43
2023-04-27T07:52:13.873Z,3.23
2023-04-27T07:57:13.398Z,4.67
2023-04-27T08:07:17.479Z,7.13
2023-04-27T08:12:17.600Z,2.00
2023-04-27T08:17:16.067Z,6.07
2023-04-27T08:22:14.714Z,2.10
2023-04-27T08:27:13.253Z,5.77
2023-04-27T08:32:13.122Z,2.50
2023-04-27T08:37:11.645Z,5.60
2023-04-27T08:42:13.447Z,1.73
2023-04-27T08:47:13.755Z,1.93
2023-04-27T08:52:13.487Z,5.47
2023-04-27T08:57:13.124Z,4.20
2023-04-27T09:09:02.586Z,2.80
2023-04-27T09:14:02.120Z,5.87
2023-04-27T09:19:00.726Z,3.50
2023-04-27T09:23:59.231Z,4.40
2023-04-27T09:28:59.098Z,1.77
2023-04-27T09:39:40.709Z,1.33
2023-04-27T09:44:40.670Z,1.37
2023-04-27T09:49:39.261Z,1.63
2023-04-27T09:54:38.299Z,2.83
2023-04-27T10:00:03.310Z,1.83
2023-04-27T10:05:26.846Z,1.77
2023-04-27T10:10:25.953Z,3.17
2023-04-27T10:15:30.299Z,1.90
2023-04-27T10:20:33.382Z,3.03
2023-04-27T10:25:40.662Z,2.97
2023-04-27T10:30:46.436Z,8.43
2023-04-27T10:35:46.389Z,2.40
2023-04-27T10:40:47.023Z,2.87
2023-04-27T10:45:47.097Z,2.90
2023-04-27T10:50:47.126Z,1.70
2023-04-27T10:55:45.599Z,2.40
2023-04-27T11:00:45.018Z,1.00
2023-04-27T11:05:45.777Z,2.60
2023-04-27T11:10:46.572Z,2.63
2023-04-27T11:15:49.596Z,1.20
2023-04-27T11:20:52.054Z,2.83
2023-04-27T11:25:51.644Z,1.63
2023-04-27T11:30:56.809Z,1.83
2023-04-27T11:35:57.829Z,4.70
2023-04-27T11:41:02.918Z,2.90
2023-04-27T11:46:04.589Z,1.37
2023-04-27T11:51:04.941Z,2.87
2023-04-27T11:56:05.722Z,2.90
2023-04-27T12:01:04.782Z,2.60
2023-04-27T12:06:21.696Z,2.70
2023-04-27T12:11:23.133Z,1.60
2023-04-27T12:16:22.294Z,1.43
2023-04-27T12:21:23.088Z,1.57
2023-04-27T12:26:21.924Z,1.67
2023-04-27T12:31:26.840Z,1.30
2023-04-27T12:36:29.056Z,2.23
2023-04-27T12:41:27.228Z,2.93
2023-04-27T12:46:25.766Z,2.50
2023-04-27T12:51:24.349Z,1.30
2023-04-27T12:56:24.428Z,1.50
2023-04-27T13:01:25.219Z,3.10
2023-04-27T13:06:24.203Z,3.37
2023-04-27T13:11:24.485Z,1.50
2023-04-27T13:16:25.799Z,1.80
2023-04-27T13:21:24.624Z,2.77
2023-04-27T13:26:24.709Z,2.77
2023-04-27T13:31:22.926Z,2.13
2023-04-27T13:36:21.906Z,5.20
2023-04-27T13:41:20.543Z,2.33
2023-04-27T13:46:20.413Z,2.43
2023-04-27T13:51:18.925Z,2.70
2023-04-27T13:56:17.440Z,3.37
2023-04-27T14:01:15.895Z,2.70
2023-04-27T14:06:16.936Z,2.97
2023-04-27T14:11:15.721Z,1.97
2023-04-27T14:16:14.267Z,1.70
2023-04-27T14:21:12.765Z,1.30
2023-04-27T14:26:12.588Z,4.53
2023-04-27T14:31:11.097Z,3.10
2023-04-27T14:36:09.925Z,2.60
2023-04-27T14:41:08.986Z,2.63
2023-04-27T14:46:20.328Z,4.03
2023-04-27T14:51:20.068Z,1.90
2023-04-27T14:56:18.669Z,3.67
2023-04-27T15:01:18.562Z,5.70
2023-04-27T15:06:17.325Z,5.30
2023-04-27T15:11:15.451Z,3.23
2023-04-27T15:16:14.390Z,1.90
2023-04-27T15:21:14.375Z,2.93
2023-04-27T15:26:12.895Z,2.40
2023-04-27T15:31:11.472Z,1.83
2023-04-27T15:36:10.406Z,3.10
2023-04-27T15:41:10.538Z,3.33
2023-04-27T15:46:09.029Z,1.70
2023-04-27T15:51:10.234Z,3.70
2023-04-27T15:56:10.452Z,2.63
2023-04-27T16:01:08.976Z,2.13
2023-04-27T16:06:08.112Z,2.87
2023-04-27T16:11:07.120Z,3.90
2023-04-27T16:16:08.681Z,4.37
2023-04-27T16:21:07.511Z,2.07
2023-04-27T16:26:06.284Z,1.20
2023-04-27T16:31:05.910Z,2.87
2023-04-27T16:36:04.144Z,4.93
2023-04-27T16:41:02.860Z,2.80
2023-04-27T16:46:01.523Z,3.00
2023-04-27T16:51:01.464Z,2.50
2023-04-27T16:56:01.337Z,3.80
2023-04-27T17:00:59.839Z,4.13
2023-04-27T17:05:58.299Z,5.17
2023-04-27T17:10:58.115Z,3.93
2023-04-27T17:15:56.783Z,9.53
2023-04-27T17:20:55.327Z,5.77
2023-04-27T17:32:18.724Z,3.90
2023-04-27T17:37:17.184Z,9.83
2023-04-27T17:42:15.906Z,3.93
2023-04-27T17:47:14.859Z,4.37
2023-04-27T17:52:14.848Z,3.63
2023-04-27T17:57:13.324Z,6.60
2023-04-27T18:02:11.893Z,4.87
2023-04-27T18:07:10.751Z,6.33
2023-04-27T18:12:11.415Z,7.03
2023-04-27T18:17:10.095Z,6.70
2023-04-27T18:22:08.610Z,5.10
2023-04-27T18:27:07.138Z,9.77
2023-04-27T18:32:07.255Z,8.20
2023-04-27T18:37:05.785Z,4.83
2023-04-27T18:42:04.314Z,5.10
2023-04-27T18:47:03.765Z,7.13
2023-04-27T18:52:03.614Z,5.50
2023-04-27T18:57:02.056Z,8.37
2023-04-27T19:02:00.646Z,7.13
2023-04-27T19:06:59.164Z,5.73
2023-04-27T19:12:03.196Z,5.77
2023-04-27T19:17:02.264Z,7.00
2023-04-27T19:22:00.779Z,5.30
2023-04-27T19:27:00.645Z,11.80
2023-04-27T19:32:00.743Z,8.30
2023-04-27T19:36:59.271Z,12.40
2023-04-27T19:41:57.747Z,11.43
2023-04-27T19:46:57.572Z,13.23
2023-04-27T19:51:56.051Z,10.23
2023-04-27T19:56:54.593Z,14.20
2023-04-27T20:01:53.095Z,8.37
2023-04-27T20:06:53.401Z,5.47
2023-04-27T20:17:07.792Z,7.00
2023-04-27T20:22:07.365Z,9.13
2023-04-27T20:27:06.597Z,6.77
2023-04-27T20:32:05.545Z,8.97
2023-04-27T20:37:05.699Z,8.77
2023-04-27T20:42:05.996Z,8.90
2023-04-27T20:47:04.607Z,13.43
2023-04-27T20:52:03.296Z,11.57
2023-04-27T20:57:02.525Z,8.73
2023-04-27T21:02:02.345Z,10.23
2023-04-27T21:07:00.842Z,9.30
2023-04-27T21:11:59.289Z,10.23
2023-04-27T21:16:57.567Z,8.90
2023-04-27T21:21:57.485Z,11.10
2023-04-27T21:27:20.796Z,8.17
2023-04-27T21:32:19.265Z,6.60
2023-04-27T21:37:19.099Z,11.20
2023-04-27T21:42:17.612Z,7.43
2023-04-27T21:47:16.119Z,8.30
2023-04-27T21:52:14.609Z,9.30
2023-04-27T21:57:14.453Z,9.10
2023-04-27T22:02:12.951Z,10.47
2023-04-27T22:07:12.399Z,7.10
2023-04-27T22:12:10.883Z,19.70
2023-04-27T22:17:12.862Z,10.70
2023-04-27T22:22:11.024Z,7.83
2023-04-27T22:27:09.543Z,6.37
2023-04-27T22:32:08.397Z,14.03
2023-04-27T22:37:08.416Z,9.83
2023-04-27T22:42:07.103Z,10.20
2023-04-27T22:47:06.182Z,8.70
2023-04-27T22:52:05.136Z,5.83
2023-04-27T22:57:05.061Z,7.57
2023-04-27T23:02:03.654Z,9.80
2023-04-27T23:07:02.376Z,9.27
2023-04-27T23:12:01.751Z,8.07
2023-04-27T23:17:02.307Z,13.90
2023-04-27T23:22:02.402Z,8.53
2023-04-27T23:27:01.574Z,8.20
2023-04-27T23:32:05.666Z,8.50
2023-04-27T23:37:04.350Z,10.00
2023-04-27T23:42:03.783Z,7.00
2023-04-27T23:47:04.027Z,8.47
2023-04-27T23:52:02.294Z,9.93
2023-04-27T23:57:01.723Z,8.20
